Siem Pilot — LCPF — position and weather

sailwx.info

Track history (hours):
 
Tides and Currents Weather Stations Pressure Air Temp Water Temp Dewpoint Dewpoint Depression Visibility Wind Speed Wind Dir Waves Ship Positions

Siem Pilot

Last reported at 2017-Apr-24 15:27 UTC. Time now 2017-Apr-29 19:22 UTC.
Position N 35°43' E 014°35'.

Length 88 m; draft 6.2 m.

Type: Law enforcement. MMSI: 257458000.

Date/timePositionNaut miles runAvg speedWind from/ knotsBaromVisibWave heightAir tempDewpointWater temp
2017-Apr-24 15:27N 35°43' E 014°35'611.3
2017-Apr-24 14:57N 35°48' E 014°38'511.5
2017-Apr-24 14:30N 35°53' E 014°35'  
2017-Apr-20 12:31N 35°54' E 014°31'0 5.7
2017-Apr-20 12:29N 35°54' E 014°31'4 9.3
2017-Apr-20 12:00N 35°58' E 014°30'713.5
2017-Apr-20 11:30N 36°03' E 014°24'713.6
2017-Apr-20 11:00N 36°08' E 014°18'713.4
2017-Apr-20 10:30N 36°12' E 014°12'612.1
2017-Apr-20 10:00N 36°16' E 014°06'612.3
2017-Apr-20 09:30N 36°20' E 013°60'612.5
2017-Apr-20 09:00N 36°23' E 013°54'26612.6
2017-Apr-19 11:56N 38°59' E 009°21'512.1
2017-Apr-19 11:30N 39°02' E 009°15'611.8
2017-Apr-19 11:00N 39°06' E 009°10'511.0
2017-Apr-19 10:30N 39°11' E 009°07'1 2.3
2017-Apr-19 09:58N 39°12' E 009°07'0 0.0
2017-Apr-19 09:28N 39°12' E 009°07'0 0.0
2017-Apr-19 08:58N 39°12' E 009°07'0 0.0
2017-Apr-19 08:28N 39°12' E 009°07'0 0.0
2017-Apr-19 07:58N 39°12' E 009°07'0 0.0
2017-Apr-19 07:28N 39°12' E 009°07'0 0.0
2017-Apr-18 13:58N 39°12' E 009°07'0 0.0
2017-Apr-18 13:28N 39°12' E 009°07'0 0.0
2017-Apr-18 12:58N 39°12' E 009°07'0 0.0
2017-Apr-18 12:30N 39°12' E 009°07'2 3.5
2017-Apr-18 12:00N 39°11' E 009°07'3 5.8
2017-Apr-18 11:30N 39°08' E 009°09'713.3
2017-Apr-18 11:00N 39°03' E 009°14'713.8
2017-Apr-18 10:30N 38°57' E 009°20'393 8.7
2017-Apr-16 13:14N 34°10' E 014°54'314.1
2017-Apr-16 13:01N 34°10' E 014°58'13 1.7
2017-Apr-16 05:31N 34°22' E 014°53'0 0.9
2017-Apr-16 05:26N 34°22' E 014°52'1 0.8
2017-Apr-16 04:49N 34°22' E 014°52'9 6.4
2017-Apr-16 03:22N 34°32' E 014°51'513.5
2017-Apr-16 03:00N 34°37' E 014°52'119 3.7
2017-Apr-14 19:07N 36°34' E 015°15'413.7
2017-Apr-14 18:48N 36°39' E 015°17'413.7
2017-Apr-14 18:30N 36°43' E 015°18'713.6
2017-Apr-14 18:00N 36°49' E 015°21'713.8
2017-Apr-14 17:30N 36°56' E 015°24'713.8
2017-Apr-14 17:00N 37°02' E 015°26'  
Track history (hours):
 
Tides and Currents Weather Stations Pressure Air Temp Water Temp Dewpoint Dewpoint Depression Visibility Wind Speed Wind Dir Waves Ship Positions

Siem Pilot

Last reported at 2017-Apr-24 15:27 UTC. Time now 2017-Apr-29 19:22 UTC.
Position N 35°43' E 014°35'.

Length 88 m; draft 6.2 m.

Type: Law enforcement. MMSI: 257458000.

Date/timePositionNaut miles runAvg speedWind from/ knotsBaromVisibWave heightAir tempDewpointWater temp
2017-Apr-24 15:27N 35°43' E 014°35'611.3
2017-Apr-24 14:57N 35°48' E 014°38'511.5
2017-Apr-24 14:30N 35°53' E 014°35'  
2017-Apr-20 12:31N 35°54' E 014°31'0 5.7
2017-Apr-20 12:29N 35°54' E 014°31'4 9.3
2017-Apr-20 12:00N 35°58' E 014°30'713.5
2017-Apr-20 11:30N 36°03' E 014°24'713.6
2017-Apr-20 11:00N 36°08' E 014°18'713.4
2017-Apr-20 10:30N 36°12' E 014°12'612.1
2017-Apr-20 10:00N 36°16' E 014°06'612.3
2017-Apr-20 09:30N 36°20' E 013°60'612.5
2017-Apr-20 09:00N 36°23' E 013°54'26612.6
2017-Apr-19 11:56N 38°59' E 009°21'512.1
2017-Apr-19 11:30N 39°02' E 009°15'611.8
2017-Apr-19 11:00N 39°06' E 009°10'511.0
2017-Apr-19 10:30N 39°11' E 009°07'1 2.3
2017-Apr-19 09:58N 39°12' E 009°07'0 0.0
2017-Apr-19 09:28N 39°12' E 009°07'0 0.0
2017-Apr-19 08:58N 39°12' E 009°07'0 0.0
2017-Apr-19 08:28N 39°12' E 009°07'0 0.0
2017-Apr-19 07:58N 39°12' E 009°07'0 0.0
2017-Apr-19 07:28N 39°12' E 009°07'0 0.0
2017-Apr-18 13:58N 39°12' E 009°07'0 0.0
2017-Apr-18 13:28N 39°12' E 009°07'0 0.0
2017-Apr-18 12:58N 39°12' E 009°07'0 0.0
2017-Apr-18 12:30N 39°12' E 009°07'2 3.5
2017-Apr-18 12:00N 39°11' E 009°07'3 5.8
2017-Apr-18 11:30N 39°08' E 009°09'713.3
2017-Apr-18 11:00N 39°03' E 009°14'713.8
2017-Apr-18 10:30N 38°57' E 009°20'393 8.7
2017-Apr-16 13:14N 34°10' E 014°54'314.1
2017-Apr-16 13:01N 34°10' E 014°58'13 1.7
2017-Apr-16 05:31N 34°22' E 014°53'0 0.9
2017-Apr-16 05:26N 34°22' E 014°52'1 0.8
2017-Apr-16 04:49N 34°22' E 014°52'9 6.4
2017-Apr-16 03:22N 34°32' E 014°51'513.5
2017-Apr-16 03:00N 34°37' E 014°52'119 3.7
2017-Apr-14 19:07N 36°34' E 015°15'413.7
2017-Apr-14 18:48N 36°39' E 015°17'413.7
2017-Apr-14 18:30N 36°43' E 015°18'713.6
2017-Apr-14 18:00N 36°49' E 015°21'713.8
2017-Apr-14 17:30N 36°56' E 015°24'713.8
2017-Apr-14 17:00N 37°02' E 015°26'  

Dump ship's entire track history